»·PEaware :: DAL1833 KSNA-KSLC

DAL1833 :: KSNA-KSLC

FLIGHT INFORMATION

Flight Status: Arrived
Operator:
Delta Air Lines
More flights by this operator :: More flights under this callsign
Pilot: Will K. (13011)
Aircraft: BOEING 737-800
(B738)
More flights by this aircraft type
Origin: KSNA John Wayne-Orange Co
United States
Destination: KSLC Salt Lake City Intl
United States
More flights between these airports :: More routes between these airports
Route: FINZZ2 BEALE Q842 WINEN MLF QWENN5
File this flight plan on PilotEdge
Remarks:
Altitude:
(Current/Filed)
35,000ft
Speed:
(Current/Filed)
320kts
Departed: 22-Apr-18 03:23 PM
Arrived: 22-Apr-18 04:46 PM
Distance/Time
Traveled:
511nm/1:23
Distance/Time
To Go:
Arrived

Flight Plot

Page will automatically refresh every two minutes.

Flight plan parsing failed; only flown route is shown


Map Options




Map Legend


Flown Route
Filed Route
Departure Airport
Arrival Airport
Navaid (VOR, NDB)
Fix

Horizontal Profiles

Position Reports

Time Latitude Longitude Heading Altitude Ground
Speed
22-Apr-18 14:47 33.677898 -117.863229 119 64ft 0kts
22-Apr-18 14:48 33.677898 -117.863229 119 64ft 0kts
22-Apr-18 14:49 33.677898 -117.863229 119 64ft 0kts
22-Apr-18 14:50 33.677898 -117.863229 119 64ft 0kts
22-Apr-18 14:51 33.677898 -117.863229 119 64ft 0kts
22-Apr-18 14:52 33.677898 -117.863229 119 64ft 0kts
22-Apr-18 14:53 33.677898 -117.863229 119 64ft 0kts
22-Apr-18 14:54 33.677898 -117.863229 119 64ft 0kts
22-Apr-18 14:55 33.677898 -117.863229 119 64ft 0kts
22-Apr-18 14:56 33.677898 -117.863229 119 64ft 0kts
22-Apr-18 14:57 33.677898 -117.863229 119 64ft 0kts
22-Apr-18 14:58 33.677898 -117.863229 119 64ft 0kts
22-Apr-18 14:59 33.677898 -117.863229 119 64ft 0kts
22-Apr-18 15:00 33.677898 -117.863229 119 64ft 0kts
22-Apr-18 15:01 33.677898 -117.863229 119 64ft 0kts
22-Apr-18 15:02 33.677898 -117.863229 119 64ft 0kts
22-Apr-18 15:03 33.677898 -117.863229 119 64ft 0kts
22-Apr-18 15:04 33.677898 -117.863229 119 64ft 0kts
22-Apr-18 15:05 33.677898 -117.863229 119 64ft 0kts
22-Apr-18 15:06 33.677898 -117.863229 119 64ft 0kts
22-Apr-18 15:07 33.677898 -117.863229 119 64ft 0kts
22-Apr-18 15:08 33.677898 -117.863229 119 64ft 0kts
22-Apr-18 15:09 33.678005 -117.863439 125 64ft 0kts
22-Apr-18 15:10 33.678005 -117.863439 125 64ft 0kts
22-Apr-18 15:11 33.678275 -117.863882 125 64ft 2kts
22-Apr-18 15:12 33.678282 -117.863895 126 64ft 0kts
22-Apr-18 15:13 33.678282 -117.863895 126 64ft 0kts
22-Apr-18 15:14 33.678282 -117.863895 126 64ft 0kts
22-Apr-18 15:15 33.678282 -117.863895 126 64ft 0kts
22-Apr-18 15:16 33.678282 -117.863894 126 64ft 0kts
22-Apr-18 15:17 33.678282 -117.863894 126 64ft 0kts
22-Apr-18 15:18 33.679005 -117.863394 28 64ft 8kts
22-Apr-18 15:19 33.680402 -117.862735 319 64ft 0kts
22-Apr-18 15:20 33.681243 -117.864506 298 64ft 7kts
22-Apr-18 15:21 33.681049 -117.865434 210 64ft 0kts
22-Apr-18 15:22 33.658511 -117.879716 208 706ft 166kts
22-Apr-18 15:23 33.609275 -117.893977 187 2987ft 225kts
22-Apr-18 15:24 33.547247 -117.925765 222 4988ft 270kts
22-Apr-18 15:25 33.498396 -117.995425 259 7755ft 282kts
22-Apr-18 15:26 33.534694 -118.072635 316 8028ft 282kts
22-Apr-18 15:27 33.595071 -118.122898 357 10508ft 295kts
22-Apr-18 15:28 33.676341 -118.081003 27 12604ft 336kts
22-Apr-18 15:29 33.760922 -118.030087 25 15411ft 351kts
22-Apr-18 15:30 33.850779 -117.977320 25 16757ft 402kts
22-Apr-18 15:31 33.949270 -117.906669 37 18894ft 420kts
22-Apr-18 15:32 34.042796 -117.820057 36 20946ft 432kts
22-Apr-18 15:33 34.130258 -117.718329 49 22749ft 446kts
22-Apr-18 15:34 34.207670 -117.602356 49 24307ft 458kts
22-Apr-18 15:35 34.288589 -117.481497 49 25733ft 468kts
22-Apr-18 15:36 34.371280 -117.358156 49 26999ft 477kts
22-Apr-18 15:37 34.455468 -117.231817 49 28405ft 480kts
22-Apr-18 15:38 34.538661 -117.106356 49 30046ft 476kts
22-Apr-18 15:39 34.622959 -116.983264 48 31609ft 471kts
22-Apr-18 15:40 34.706463 -116.861820 48 33068ft 467kts
22-Apr-18 15:41 34.788879 -116.740868 48 34386ft 463kts
22-Apr-18 15:42 34.871900 -116.619677 46 34922ft 466kts
22-Apr-18 15:43 34.958883 -116.504147 46 34936ft 462kts
22-Apr-18 15:44 35.045356 -116.388299 46 34947ft 462kts
22-Apr-18 15:45 35.132107 -116.271898 46 34952ft 462kts
22-Apr-18 15:46 35.218471 -116.155589 46 34953ft 462kts
22-Apr-18 15:47 35.304924 -116.038547 46 34943ft 463kts
22-Apr-18 15:48 35.390909 -115.921685 47 34944ft 461kts
22-Apr-18 15:49 35.476635 -115.804754 47 34940ft 462kts
22-Apr-18 15:50 35.562730 -115.687230 47 34938ft 462kts
22-Apr-18 15:51 35.648215 -115.569572 47 34936ft 462kts
22-Apr-18 15:52 35.733606 -115.451780 47 34939ft 461kts
22-Apr-18 15:53 35.819045 -115.333363 47 34944ft 461kts
22-Apr-18 15:54 35.903011 -115.216536 47 34948ft 461kts
22-Apr-18 15:55 35.988430 -115.098136 47 34949ft 460kts
22-Apr-18 15:56 36.073506 -114.979380 48 34932ft 463kts
22-Apr-18 15:57 36.158759 -114.860490 44 34919ft 462kts
22-Apr-18 15:58 36.265046 -114.772006 28 34920ft 461kts
22-Apr-18 15:59 36.377851 -114.696693 27 34922ft 461kts
22-Apr-18 16:00 36.490862 -114.621678 27 34924ft 461kts
22-Apr-18 16:01 36.604387 -114.545857 27 34934ft 462kts
22-Apr-18 16:02 36.717472 -114.469859 28 34946ft 463kts
22-Apr-18 16:03 36.826953 -114.384321 31 34950ft 464kts
22-Apr-18 16:04 36.935951 -114.297883 31 34957ft 465kts
22-Apr-18 16:05 37.045400 -114.211449 31 34977ft 466kts
22-Apr-18 16:06 37.155524 -114.124444 31 34978ft 468kts
22-Apr-18 16:07 37.265589 -114.037066 31 34980ft 470kts
22-Apr-18 16:08 37.375732 -113.949288 31 34986ft 470kts
22-Apr-18 16:09 37.486431 -113.860749 31 34998ft 470kts
22-Apr-18 16:10 37.596842 -113.772116 31 35012ft 471kts
22-Apr-18 16:11 37.707640 -113.683043 31 35034ft 471kts
22-Apr-18 16:12 37.817929 -113.593816 31 35074ft 471kts
22-Apr-18 16:13 37.927815 -113.503649 35 35064ft 471kts
22-Apr-18 16:14 38.026954 -113.394154 41 35067ft 473kts
22-Apr-18 16:15 38.124924 -113.282422 41 34921ft 475kts
22-Apr-18 16:16 38.223642 -113.170239 41 33920ft 477kts
22-Apr-18 16:17 38.322313 -113.057058 40 32921ft 479kts
22-Apr-18 16:18 38.436573 -112.971694 21 31923ft 479kts
22-Apr-18 16:19 38.560531 -112.906430 21 30923ft 482kts
22-Apr-18 16:20 38.684568 -112.840272 21 29924ft 485kts
22-Apr-18 16:21 38.808632 -112.773496 21 28736ft 476kts
22-Apr-18 16:22 38.930890 -112.707483 22 25091ft 483kts
22-Apr-18 16:23 39.051626 -112.642192 22 22391ft 461kts
22-Apr-18 16:24 39.168167 -112.578839 21 19645ft 445kts
22-Apr-18 16:25 39.280344 -112.517550 21 17025ft 429kts
22-Apr-18 16:26 39.386843 -112.457318 22 15253ft 398kts
22-Apr-18 16:27 39.480897 -112.403208 22 15075ft 345kts
22-Apr-18 16:28 39.568818 -112.352460 22 15081ft 349kts
22-Apr-18 16:29 39.657527 -112.301187 22 15080ft 350kts
22-Apr-18 16:30 39.746616 -112.249777 22 15078ft 349kts
22-Apr-18 16:31 39.835500 -112.198086 22 15074ft 350kts
22-Apr-18 16:32 39.909743 -112.154784 22 15076ft 349kts
22-Apr-18 16:33 39.997376 -112.103134 23 13849ft 342kts
22-Apr-18 16:34 40.082854 -112.051650 23 12449ft 335kts
22-Apr-18 16:35 40.166643 -112.000848 24 11177ft 325kts
22-Apr-18 16:36 40.243525 -111.954109 24 11063ft 281kts
22-Apr-18 16:37 40.314382 -111.935380 1 11104ft 252kts
22-Apr-18 16:38 40.385416 -111.928897 359 11080ft 257kts
22-Apr-18 16:39 40.456398 -111.936387 353 11077ft 256kts
22-Apr-18 16:40 40.526757 -111.944474 353 11010ft 239kts
22-Apr-18 16:41 40.588063 -111.951494 353 9697ft 228kts
22-Apr-18 16:42 40.656925 -111.959424 354 6721ft 254kts
22-Apr-18 16:43 40.719837 -111.966689 353 5312ft 199kts
22-Apr-18 16:44 40.769356 -111.972558 353 4358ft 158kts
22-Apr-18 16:45 40.791804 -111.975776 314 4235ft 15kts
22-Apr-18 16:46 40.793356 -111.977543 354 4235ft 11kts
22-Apr-18 16:47 40.796625 -111.977986 333 4235ft 7kts
22-Apr-18 16:48 40.799753 -111.979218 353 4235ft 14kts
22-Apr-18 16:49 40.801646 -111.980585 327 4235ft 4kts
22-Apr-18 16:50 40.802567 -111.982274 355 4235ft 0kts
22-Apr-18 16:51 40.802567 -111.982274 355 4235ft 0kts

Navigation Log

Ident Type
Flight plan parsing failed, navigation log unavailable